createdAt,value
2018-09-30T00:01:46.058Z,7.30
2018-09-30T00:03:54.068Z,7.20
2018-09-30T00:06:04.388Z,7.20
2018-09-30T00:08:14.444Z,7.20
2018-09-30T00:10:22.238Z,7.20
2018-09-30T00:12:31.924Z,7.10
2018-09-30T00:14:42.041Z,7.10
2018-09-30T00:16:51.577Z,7.10
2018-09-30T00:19:02.036Z,7.10
2018-09-30T00:21:09.143Z,7.00
2018-09-30T00:23:16.748Z,7.00
2018-09-30T00:25:28.851Z,7.00
2018-09-30T00:27:37.037Z,7.00
2018-09-30T00:29:45.478Z,6.90
2018-09-30T00:31:52.745Z,6.90
2018-09-30T00:34:04.095Z,6.90
2018-09-30T00:36:10.876Z,6.80
2018-09-30T00:38:18.873Z,6.80
2018-09-30T00:40:25.503Z,6.80
2018-09-30T00:42:32.708Z,6.80
2018-09-30T00:44:41.007Z,6.80
2018-09-30T00:46:47.902Z,6.70
2018-09-30T00:48:56.356Z,6.70
2018-09-30T00:51:06.301Z,6.70
2018-09-30T00:53:14.367Z,6.70
2018-09-30T00:55:22.875Z,6.70
2018-09-30T00:57:28.680Z,6.60
2018-09-30T00:59:35.554Z,6.60
2018-09-30T01:01:45.001Z,6.60
2018-09-30T01:03:52.868Z,6.60
2018-09-30T01:06:01.685Z,6.60
2018-09-30T01:08:10.855Z,6.50
2018-09-30T01:10:16.504Z,6.50
2018-09-30T01:12:21.017Z,6.50
2018-09-30T01:14:25.499Z,6.50
2018-09-30T01:16:30.000Z,6.40
2018-09-30T01:18:34.552Z,6.40
2018-09-30T01:20:39.120Z,6.40
2018-09-30T01:22:44.726Z,6.40
2018-09-30T01:24:49.230Z,6.40
2018-09-30T01:26:53.640Z,6.40
2018-09-30T01:28:58.138Z,6.40
2018-09-30T01:31:03.891Z,6.30
2018-09-30T01:33:08.364Z,6.30
2018-09-30T01:35:12.830Z,6.30
2018-09-30T01:37:17.273Z,6.20
2018-09-30T01:39:21.727Z,6.20
2018-09-30T01:41:26.193Z,6.20
2018-09-30T01:43:30.683Z,6.20
2018-09-30T01:45:35.177Z,6.20
2018-09-30T01:47:39.654Z,6.20
2018-09-30T01:49:46.073Z,6.10
2018-09-30T01:52:08.154Z,6.20
2018-09-30T01:54:12.819Z,6.10
2018-09-30T01:56:17.612Z,6.10
2018-09-30T01:58:22.848Z,6.00
2018-09-30T02:00:29.086Z,6.00
2018-09-30T02:02:34.475Z,6.00
2018-09-30T02:04:39.537Z,6.00
2018-09-30T02:06:45.760Z,6.00
2018-09-30T02:08:52.364Z,5.90
2018-09-30T02:10:59.148Z,5.90
2018-09-30T02:13:05.613Z,5.90
2018-09-30T02:15:11.533Z,5.90
2018-09-30T02:17:17.639Z,5.90
2018-09-30T02:19:23.226Z,5.90
2018-09-30T02:21:31.964Z,5.80
2018-09-30T02:23:37.772Z,5.80
2018-09-30T02:25:43.755Z,5.80
2018-09-30T02:27:52.589Z,5.80
2018-09-30T02:29:59.732Z,5.80
2018-09-30T02:32:06.487Z,5.70
2018-09-30T02:34:13.088Z,5.70
2018-09-30T02:36:18.741Z,5.70
2018-09-30T02:38:25.065Z,5.70
2018-09-30T02:40:32.787Z,5.70
2018-09-30T02:42:38.286Z,5.70
2018-09-30T02:44:45.310Z,5.70
2018-09-30T02:46:54.476Z,5.70
2018-09-30T02:49:02.196Z,5.70
2018-09-30T02:51:10.332Z,5.70
2018-09-30T02:53:16.552Z,5.60
2018-09-30T02:55:26.606Z,5.60
2018-09-30T02:57:33.603Z,5.60
2018-09-30T02:59:42.564Z,5.60
2018-09-30T03:01:49.706Z,5.60
2018-09-30T03:03:55.561Z,5.60
2018-09-30T03:06:01.426Z,5.60
2018-09-30T03:08:13.533Z,5.60
2018-09-30T03:10:18.665Z,5.60
2018-09-30T03:12:25.088Z,5.60
2018-09-30T03:14:30.142Z,5.60
2018-09-30T03:16:39.089Z,5.60
2018-09-30T03:18:46.079Z,5.50
2018-09-30T03:20:52.995Z,5.50
2018-09-30T03:22:59.706Z,5.50
2018-09-30T03:25:06.609Z,5.50
2018-09-30T03:27:12.883Z,5.50
2018-09-30T03:29:20.631Z,5.50
2018-09-30T03:31:26.243Z,5.40
2018-09-30T03:33:33.504Z,5.40
2018-09-30T03:35:41.355Z,5.40
2018-09-30T03:37:47.951Z,5.40
2018-09-30T03:39:54.438Z,5.40
2018-09-30T03:42:01.112Z,5.40
2018-09-30T03:44:06.751Z,5.40
2018-09-30T03:46:12.788Z,5.40
2018-09-30T03:48:19.115Z,5.40
2018-09-30T03:50:25.667Z,5.40
2018-09-30T03:52:31.202Z,5.40
2018-09-30T03:54:38.213Z,5.40
2018-09-30T03:56:42.789Z,5.30
2018-09-30T03:58:47.888Z,5.30
2018-09-30T04:00:52.349Z,5.30
2018-09-30T04:02:56.850Z,5.30
2018-09-30T04:05:01.311Z,5.30
2018-09-30T04:07:05.829Z,5.30
2018-09-30T04:09:10.575Z,5.30
2018-09-30T04:11:15.116Z,5.30
2018-09-30T04:13:19.643Z,5.30
2018-09-30T04:15:24.098Z,5.30
2018-09-30T04:17:28.620Z,5.30
2018-09-30T04:19:33.058Z,5.20
2018-09-30T04:21:37.541Z,5.20
2018-09-30T04:23:42.001Z,5.20
2018-09-30T04:25:46.459Z,5.20
2018-09-30T04:27:50.875Z,5.20
2018-09-30T04:29:55.380Z,5.20
2018-09-30T04:31:59.843Z,5.20
2018-09-30T04:34:04.842Z,5.20
2018-09-30T04:36:09.494Z,5.20
2018-09-30T04:38:13.876Z,5.10
2018-09-30T04:40:18.322Z,5.10
2018-09-30T04:42:22.842Z,5.10
2018-09-30T04:44:27.279Z,5.10
2018-09-30T04:46:32.027Z,5.10
2018-09-30T04:48:37.096Z,5.10
2018-09-30T04:50:41.605Z,5.10
2018-09-30T04:52:46.126Z,5.10
2018-09-30T04:54:50.720Z,5.10
2018-09-30T04:56:55.271Z,5.10
2018-09-30T04:58:59.687Z,5.00
2018-09-30T05:01:04.238Z,5.00
2018-09-30T05:03:08.707Z,5.00
2018-09-30T05:05:13.149Z,5.00
2018-09-30T05:07:17.643Z,5.00
2018-09-30T05:09:22.106Z,5.00
2018-09-30T05:11:26.620Z,5.00
2018-09-30T05:13:31.068Z,5.00
2018-09-30T05:15:35.532Z,4.90
2018-09-30T05:17:40.112Z,5.00
2018-09-30T05:19:44.630Z,4.90
2018-09-30T05:21:49.153Z,4.90
2018-09-30T05:23:53.662Z,4.90
2018-09-30T05:25:58.088Z,4.90
2018-09-30T05:28:02.552Z,4.90
2018-09-30T05:30:07.165Z,4.90
2018-09-30T05:32:11.603Z,4.90
2018-09-30T05:34:16.190Z,4.90
2018-09-30T05:36:20.682Z,4.90
2018-09-30T05:38:25.136Z,4.90
2018-09-30T05:40:29.599Z,4.90
2018-09-30T05:42:34.075Z,4.90
2018-09-30T05:44:38.542Z,4.90
2018-09-30T05:46:43.112Z,4.90
2018-09-30T05:48:47.714Z,4.90
2018-09-30T05:50:52.257Z,4.90
2018-09-30T05:52:57.750Z,4.90
2018-09-30T05:55:02.764Z,4.90
2018-09-30T05:57:07.037Z,4.90
2018-09-30T05:59:11.571Z,4.90
2018-09-30T06:01:17.160Z,4.90
2018-09-30T06:03:22.613Z,4.90
2018-09-30T06:05:28.543Z,4.90
2018-09-30T06:07:33.123Z,4.90
2018-09-30T06:09:37.952Z,4.90
2018-09-30T06:11:44.643Z,4.90
2018-09-30T06:13:49.199Z,4.90
2018-09-30T06:15:53.654Z,4.90
2018-09-30T06:17:58.118Z,4.90
2018-09-30T06:20:02.623Z,4.90
2018-09-30T06:22:07.408Z,4.90
2018-09-30T06:24:12.783Z,4.90
2018-09-30T06:26:18.411Z,4.90
2018-09-30T06:28:22.861Z,4.90
2018-09-30T06:30:27.329Z,4.90
2018-09-30T06:32:31.789Z,4.90
2018-09-30T06:34:36.446Z,4.90
2018-09-30T06:36:40.922Z,5.00
2018-09-30T06:38:45.703Z,5.00
2018-09-30T06:40:50.938Z,5.00
2018-09-30T06:42:55.420Z,5.00
2018-09-30T06:45:00.001Z,5.00
2018-09-30T06:47:04.882Z,5.10
2018-09-30T06:49:09.304Z,5.10
2018-09-30T06:51:13.826Z,5.10
2018-09-30T06:53:18.347Z,5.20
2018-09-30T06:55:22.831Z,5.20
2018-09-30T06:57:27.319Z,5.20
2018-09-30T06:59:31.898Z,5.20
2018-09-30T07:01:37.285Z,5.30
2018-09-30T07:03:41.820Z,5.30
2018-09-30T07:05:46.294Z,5.30
2018-09-30T07:07:50.776Z,5.30
2018-09-30T07:09:55.289Z,5.40
2018-09-30T07:11:59.802Z,5.40
2018-09-30T07:14:06.703Z,5.40
2018-09-30T07:16:15.742Z,5.50
2018-09-30T07:18:22.621Z,5.50
2018-09-30T07:20:29.557Z,5.50
2018-09-30T07:22:35.658Z,5.50
2018-09-30T07:24:40.070Z,5.60
2018-09-30T07:26:44.506Z,5.60
2018-09-30T07:28:49.023Z,5.70
2018-09-30T07:30:53.488Z,5.70
2018-09-30T07:32:58.538Z,5.80
2018-09-30T07:35:07.463Z,5.80
2018-09-30T07:37:12.755Z,5.90
2018-09-30T07:39:19.078Z,5.90
2018-09-30T07:41:23.575Z,6.00
2018-09-30T07:43:28.096Z,6.00
2018-09-30T07:45:32.527Z,6.10
2018-09-30T07:47:37.036Z,6.10
2018-09-30T07:49:41.510Z,6.10
2018-09-30T07:51:45.990Z,6.20
2018-09-30T07:53:50.474Z,6.30
2018-09-30T07:55:55.031Z,6.40
2018-09-30T07:58:00.666Z,6.40
2018-09-30T08:00:06.292Z,6.50
2018-09-30T08:02:13.796Z,6.60
2018-09-30T08:04:19.212Z,6.70
2018-09-30T08:06:23.722Z,6.80
2018-09-30T08:08:28.213Z,6.90
2018-09-30T08:10:32.692Z,7.00
2018-09-30T08:12:37.128Z,7.10
2018-09-30T08:14:41.795Z,7.20
2018-09-30T08:16:46.301Z,7.40
2018-09-30T08:18:50.834Z,7.40
2018-09-30T08:20:55.801Z,7.60
2018-09-30T08:23:00.954Z,7.70
2018-09-30T08:25:08.568Z,7.80
2018-09-30T08:27:15.835Z,8.00
2018-09-30T08:29:22.684Z,8.10
2018-09-30T08:31:28.981Z,8.30
2018-09-30T08:33:38.186Z,8.40
2018-09-30T08:35:48.495Z,8.60
2018-09-30T08:38:00.087Z,8.70
2018-09-30T08:40:08.037Z,8.90
2018-09-30T08:42:15.472Z,9.00
2018-09-30T08:44:27.116Z,9.20
2018-09-30T08:46:39.231Z,9.40
2018-09-30T08:48:46.848Z,9.50
2018-09-30T08:50:55.354Z,9.70
2018-09-30T08:53:06.923Z,9.80
2018-09-30T08:55:15.136Z,10.00
2018-09-30T08:57:23.083Z,10.20
2018-09-30T08:59:33.483Z,10.40
2018-09-30T09:01:42.476Z,10.50
2018-09-30T09:03:52.275Z,10.70
2018-09-30T09:06:00.195Z,10.90
2018-09-30T09:08:06.332Z,11.00
2018-09-30T09:10:16.573Z,11.20
2018-09-30T09:12:25.845Z,11.40
2018-09-30T09:14:34.601Z,11.50
2018-09-30T09:16:46.425Z,11.70
2018-09-30T09:18:54.645Z,11.90
2018-09-30T09:21:01.159Z,12.10
2018-09-30T09:23:07.842Z,12.20
2018-09-30T09:25:18.733Z,12.40
2018-09-30T09:27:26.481Z,12.60
2018-09-30T09:29:34.920Z,12.80
2018-09-30T09:31:43.999Z,13.00
2018-09-30T09:33:53.125Z,13.10
2018-09-30T09:36:06.316Z,13.30
2018-09-30T09:38:15.327Z,13.50
2018-09-30T09:40:21.331Z,13.70
2018-09-30T09:42:29.795Z,13.80
2018-09-30T09:44:39.323Z,14.00
2018-09-30T09:46:47.407Z,14.20
2018-09-30T09:48:54.745Z,14.40
2018-09-30T09:51:00.350Z,14.50
2018-09-30T09:53:09.466Z,14.80
2018-09-30T09:55:17.941Z,14.90
2018-09-30T09:57:26.504Z,15.10
2018-09-30T09:59:35.540Z,15.30
2018-09-30T10:01:45.237Z,15.50
2018-09-30T10:03:54.506Z,15.60
2018-09-30T10:06:02.790Z,15.80
2018-09-30T10:08:12.341Z,16.00
2018-09-30T10:10:19.330Z,16.20
2018-09-30T10:12:28.135Z,16.40
2018-09-30T10:14:35.650Z,16.60
2018-09-30T10:16:45.071Z,16.80
2018-09-30T10:18:51.354Z,16.90
2018-09-30T10:20:58.491Z,17.10
2018-09-30T10:23:06.055Z,17.30
2018-09-30T10:25:14.492Z,17.50
2018-09-30T10:27:22.081Z,17.70
2018-09-30T10:29:29.740Z,17.90
2018-09-30T10:31:40.918Z,18.00
2018-09-30T10:33:52.421Z,18.20
2018-09-30T10:36:02.367Z,18.40
2018-09-30T10:38:13.665Z,18.60
2018-09-30T10:40:23.262Z,18.70
2018-09-30T10:42:35.108Z,18.90
2018-09-30T10:44:46.745Z,19.00
2018-09-30T10:46:56.750Z,19.20
2018-09-30T10:49:05.687Z,19.40
2018-09-30T10:51:15.280Z,19.50
2018-09-30T10:53:27.324Z,19.70
2018-09-30T10:55:40.895Z,19.80
2018-09-30T10:57:57.841Z,19.90
2018-09-30T11:00:11.687Z,20.10
2018-09-30T11:02:24.753Z,20.20
2018-09-30T11:04:38.443Z,20.30
2018-09-30T11:06:49.083Z,20.50
2018-09-30T11:08:56.446Z,20.50
2018-09-30T11:11:05.422Z,20.70
2018-09-30T11:13:16.704Z,20.70
2018-09-30T11:15:26.941Z,20.80
2018-09-30T11:17:37.618Z,20.90
2018-09-30T11:19:50.315Z,21.10
2018-09-30T11:22:02.580Z,21.10
2018-09-30T11:24:13.030Z,21.20
2018-09-30T11:26:21.267Z,21.30
2018-09-30T11:28:30.939Z,21.40
2018-09-30T11:30:43.374Z,21.50
2018-09-30T11:32:51.814Z,21.50
2018-09-30T11:35:09.783Z,21.60
2018-09-30T11:37:15.948Z,21.70
2018-09-30T11:39:22.278Z,21.70
2018-09-30T11:41:29.544Z,21.80
2018-09-30T11:43:37.307Z,21.80
2018-09-30T11:45:45.802Z,21.90
2018-09-30T11:47:53.839Z,21.90
2018-09-30T11:50:00.764Z,22.00
2018-09-30T11:52:08.547Z,22.00
2018-09-30T11:54:17.661Z,22.10
2018-09-30T11:56:24.419Z,22.10
2018-09-30T11:58:31.915Z,22.10
2018-09-30T12:00:39.812Z,22.10
2018-09-30T12:02:46.167Z,22.20
2018-09-30T12:04:56.248Z,22.20
2018-09-30T12:07:02.689Z,22.20
2018-09-30T12:09:11.158Z,22.30
2018-09-30T12:11:18.260Z,22.30
2018-09-30T12:13:25.836Z,22.30
2018-09-30T12:15:33.973Z,22.30
2018-09-30T12:17:42.690Z,22.30
2018-09-30T12:19:54.419Z,22.30
2018-09-30T12:22:06.200Z,22.30
2018-09-30T12:24:18.513Z,22.40
2018-09-30T12:26:32.891Z,22.40
2018-09-30T12:28:39.438Z,22.40
2018-09-30T12:30:45.647Z,22.50
2018-09-30T12:32:57.451Z,22.50
2018-09-30T12:35:04.842Z,22.50
2018-09-30T12:37:15.420Z,22.60
2018-09-30T12:39:28.391Z,22.60
2018-09-30T12:41:39.635Z,22.70
2018-09-30T12:43:47.505Z,22.70
2018-09-30T12:46:02.844Z,22.80
2018-09-30T12:48:16.017Z,22.80
2018-09-30T12:50:29.456Z,22.90
2018-09-30T12:52:41.118Z,22.90
2018-09-30T12:54:54.731Z,23.00
2018-09-30T12:57:09.332Z,23.00
2018-09-30T12:59:24.156Z,23.00
2018-09-30T13:01:34.716Z,23.10
2018-09-30T13:03:47.787Z,23.10
2018-09-30T13:05:58.764Z,23.10
2018-09-30T13:08:03.438Z,23.20
2018-09-30T13:10:08.563Z,23.20
2018-09-30T13:12:14.675Z,23.20
2018-09-30T13:14:19.642Z,23.30
2018-09-30T13:16:24.967Z,23.30
2018-09-30T13:18:29.859Z,23.30
2018-09-30T13:20:35.028Z,23.30
2018-09-30T13:22:39.604Z,23.40
2018-09-30T13:24:44.173Z,23.40
2018-09-30T13:26:48.675Z,23.40
2018-09-30T13:28:53.124Z,23.40
2018-09-30T13:30:57.675Z,23.40
2018-09-30T13:33:03.668Z,23.40
2018-09-30T13:35:09.432Z,23.40
2018-09-30T13:37:14.476Z,23.40
2018-09-30T13:39:19.642Z,23.40
2018-09-30T13:41:25.159Z,23.50
2018-09-30T13:43:30.039Z,23.50
2018-09-30T13:45:34.821Z,23.50
2018-09-30T13:47:39.654Z,23.50
2018-09-30T13:49:44.374Z,23.50
2018-09-30T13:51:48.851Z,23.50
2018-09-30T13:53:53.291Z,23.50
2018-09-30T13:55:57.802Z,23.50
2018-09-30T13:58:02.263Z,23.50
2018-09-30T14:00:08.091Z,23.50
2018-09-30T14:02:12.648Z,23.50
2018-09-30T14:04:17.098Z,23.40
2018-09-30T14:06:21.507Z,23.40
2018-09-30T14:08:26.498Z,23.30
2018-09-30T14:10:30.982Z,23.30
2018-09-30T14:12:35.542Z,23.30
2018-09-30T14:14:40.823Z,23.20
2018-09-30T14:16:53.268Z,23.20
2018-09-30T14:19:11.580Z,23.10
2018-09-30T14:21:24.412Z,23.10
2018-09-30T14:23:37.450Z,23.10
2018-09-30T14:25:51.106Z,23.00
2018-09-30T14:28:04.172Z,23.00
2018-09-30T14:30:20.574Z,22.90
2018-09-30T14:32:37.141Z,22.90
2018-09-30T14:34:53.374Z,22.90
2018-09-30T14:37:10.905Z,22.80
2018-09-30T14:39:19.670Z,22.80
2018-09-30T14:41:30.140Z,22.80
2018-09-30T14:43:37.536Z,22.70
2018-09-30T14:45:49.617Z,22.70
2018-09-30T14:48:01.623Z,22.60
2018-09-30T14:50:11.890Z,22.60
2018-09-30T14:52:23.278Z,22.50
2018-09-30T14:54:36.592Z,22.50
2018-09-30T14:56:53.892Z,22.40
2018-09-30T14:59:08.769Z,22.30
2018-09-30T15:01:24.509Z,22.30
2018-09-30T15:03:38.544Z,22.20
2018-09-30T15:05:55.378Z,22.10
2018-09-30T15:08:11.128Z,22.10
2018-09-30T15:10:22.759Z,22.00
2018-09-30T15:12:35.706Z,21.90
2018-09-30T15:14:48.199Z,21.80
2018-09-30T15:16:57.219Z,21.70
2018-09-30T15:19:10.996Z,21.70
2018-09-30T15:21:24.944Z,21.60
2018-09-30T15:23:30.429Z,21.50
2018-09-30T15:25:43.094Z,21.40
2018-09-30T15:28:01.165Z,21.40
2018-09-30T15:30:10.646Z,21.30
2018-09-30T15:32:26.917Z,21.10
2018-09-30T15:34:33.906Z,21.20
2018-09-30T15:36:43.491Z,21.10
2018-09-30T15:38:52.211Z,21.00
2018-09-30T15:41:07.030Z,20.90
2018-09-30T15:43:22.398Z,20.80
2018-09-30T15:45:38.682Z,20.70
2018-09-30T15:47:54.749Z,20.60
2018-09-30T15:50:13.605Z,20.60
2018-09-30T15:52:29.445Z,20.50
2018-09-30T15:54:33.926Z,20.50
2018-09-30T15:56:39.479Z,20.30
2018-09-30T15:58:44.232Z,20.20
2018-09-30T16:00:48.726Z,20.20
2018-09-30T16:02:53.194Z,20.10
2018-09-30T16:04:57.724Z,20.00
2018-09-30T16:07:02.307Z,19.90
2018-09-30T16:09:08.600Z,19.80
2018-09-30T16:11:13.116Z,19.70
2018-09-30T16:13:17.655Z,19.60
2018-09-30T16:15:22.075Z,19.50
2018-09-30T16:17:26.490Z,19.40
2018-09-30T16:19:31.006Z,19.40
2018-09-30T16:21:35.538Z,19.20
2018-09-30T16:23:40.057Z,19.10
2018-09-30T16:25:44.549Z,19.00
2018-09-30T16:27:49.102Z,18.90
2018-09-30T16:29:53.552Z,18.80
2018-09-30T16:31:57.976Z,18.70
2018-09-30T16:34:06.669Z,18.60
2018-09-30T16:36:15.358Z,18.50
2018-09-30T16:38:20.963Z,18.40
2018-09-30T16:40:28.614Z,18.20
2018-09-30T16:42:35.754Z,18.20
2018-09-30T16:44:42.998Z,18.00
2018-09-30T16:46:51.567Z,17.90
2018-09-30T16:48:59.398Z,17.80
2018-09-30T16:51:07.423Z,17.70
2018-09-30T16:53:15.621Z,17.60
2018-09-30T16:55:21.657Z,17.40
2018-09-30T16:57:28.101Z,17.40
2018-09-30T16:59:33.765Z,17.20
2018-09-30T17:01:41.159Z,17.10
2018-09-30T17:03:49.950Z,17.00
2018-09-30T17:05:56.468Z,16.90
2018-09-30T17:08:02.992Z,16.80
2018-09-30T17:10:10.091Z,16.70
2018-09-30T17:12:16.231Z,16.60
2018-09-30T17:14:23.224Z,16.50
2018-09-30T17:16:32.236Z,16.40
2018-09-30T17:18:40.368Z,16.30
2018-09-30T17:20:48.764Z,16.30
2018-09-30T17:22:57.119Z,16.20
2018-09-30T17:25:05.278Z,16.10
2018-09-30T17:27:14.088Z,16.00
2018-09-30T17:29:20.167Z,15.90
2018-09-30T17:31:31.503Z,15.90
2018-09-30T17:33:40.324Z,15.80
2018-09-30T17:35:53.649Z,15.70
2018-09-30T17:38:07.002Z,15.60
2018-09-30T17:40:16.150Z,15.50
2018-09-30T17:42:29.016Z,15.40
2018-09-30T17:44:43.321Z,15.40
2018-09-30T17:46:59.432Z,15.20
2018-09-30T17:49:15.115Z,15.20
2018-09-30T17:51:31.585Z,15.10
2018-09-30T17:53:46.926Z,15.00
2018-09-30T17:55:59.719Z,14.90
2018-09-30T17:58:10.168Z,14.80
2018-09-30T18:00:21.326Z,14.70
2018-09-30T18:02:35.375Z,14.70
2018-09-30T18:04:50.391Z,14.60
2018-09-30T18:07:03.110Z,14.50
2018-09-30T18:09:22.440Z,14.40
2018-09-30T18:11:37.849Z,14.30
2018-09-30T18:13:56.227Z,14.20
2018-09-30T18:16:10.967Z,14.20
2018-09-30T18:18:21.549Z,14.10
2018-09-30T18:20:39.975Z,14.00
2018-09-30T18:22:50.893Z,13.90
2018-09-30T18:25:05.138Z,13.80
2018-09-30T18:27:09.615Z,13.80
2018-09-30T18:29:14.046Z,13.70
2018-09-30T18:31:18.978Z,13.70
2018-09-30T18:33:24.579Z,13.60
2018-09-30T18:35:29.122Z,13.50
2018-09-30T18:37:33.555Z,13.50
2018-09-30T18:39:38.081Z,13.40
2018-09-30T18:41:54.301Z,13.30
2018-09-30T18:44:11.095Z,13.30
2018-09-30T18:46:29.309Z,13.20
2018-09-30T18:48:44.770Z,13.10
2018-09-30T18:50:59.780Z,13.00
2018-09-30T18:53:16.674Z,13.00
2018-09-30T18:55:31.325Z,12.90
2018-09-30T18:57:48.686Z,12.80
2018-09-30T18:59:59.404Z,12.80
2018-09-30T19:02:09.687Z,12.70
2018-09-30T19:04:20.201Z,12.60
2018-09-30T19:06:35.421Z,12.60
2018-09-30T19:08:49.658Z,12.50
2018-09-30T19:10:56.130Z,12.50
2018-09-30T19:13:10.886Z,12.30
2018-09-30T19:15:24.319Z,12.30
2018-09-30T19:17:37.829Z,12.20
2018-09-30T19:19:46.193Z,12.20
2018-09-30T19:22:02.772Z,12.10
2018-09-30T19:24:16.942Z,12.10
2018-09-30T19:26:30.906Z,12.00
2018-09-30T19:28:46.667Z,12.00
2018-09-30T19:30:54.295Z,11.90
2018-09-30T19:33:07.172Z,11.90
2018-09-30T19:35:21.402Z,11.80
2018-09-30T19:37:35.014Z,11.70
2018-09-30T19:39:46.083Z,11.70
2018-09-30T19:42:02.479Z,11.60
2018-09-30T19:44:18.955Z,11.60
2018-09-30T19:46:34.428Z,11.50
2018-09-30T19:48:51.577Z,11.50
2018-09-30T19:51:07.834Z,11.40
2018-09-30T19:53:23.156Z,11.40
2018-09-30T19:55:37.292Z,11.30
2018-09-30T19:57:55.155Z,11.30
2018-09-30T20:00:06.619Z,11.20
2018-09-30T20:02:17.554Z,11.20
2018-09-30T20:04:29.786Z,11.10
2018-09-30T20:06:34.479Z,11.10
2018-09-30T20:08:50.623Z,11.10
2018-09-30T20:10:59.529Z,11.00
2018-09-30T20:13:07.551Z,11.00
2018-09-30T20:15:38.949Z,11.00
2018-09-30T20:17:55.746Z,10.90
2018-09-30T20:20:11.963Z,10.90
2018-09-30T20:22:25.818Z,10.80
2018-09-30T20:24:31.806Z,10.80
2018-09-30T20:26:47.665Z,10.70
2018-09-30T20:29:03.696Z,10.70
2018-09-30T20:31:10.299Z,10.70
2018-09-30T20:33:14.879Z,10.70
2018-09-30T20:35:21.127Z,10.60
2018-09-30T20:37:26.079Z,10.60
2018-09-30T20:39:30.763Z,10.60
2018-09-30T20:41:35.925Z,10.60
2018-09-30T20:43:41.094Z,10.60
2018-09-30T20:45:45.995Z,10.60
2018-09-30T20:47:55.216Z,10.60
2018-09-30T20:50:00.047Z,10.50
2018-09-30T20:52:06.016Z,10.50
2018-09-30T20:54:10.863Z,10.50
2018-09-30T20:56:15.575Z,10.50
2018-09-30T20:58:20.645Z,10.50
2018-09-30T21:00:26.519Z,10.50
2018-09-30T21:02:31.187Z,10.50
2018-09-30T21:04:35.953Z,10.50
2018-09-30T21:06:42.254Z,10.50
2018-09-30T21:08:47.029Z,10.50
2018-09-30T21:10:52.173Z,10.50
2018-09-30T21:12:56.903Z,10.50
2018-09-30T21:15:01.601Z,10.50
2018-09-30T21:17:06.991Z,10.50
2018-09-30T21:19:11.826Z,10.40
2018-09-30T21:21:16.600Z,10.40
2018-09-30T21:23:21.286Z,10.40
2018-09-30T21:25:26.607Z,10.40
2018-09-30T21:27:31.348Z,10.40
2018-09-30T21:29:36.055Z,10.40
2018-09-30T21:31:40.949Z,10.40
2018-09-30T21:33:46.499Z,10.40
2018-09-30T21:35:51.435Z,10.40
2018-09-30T21:37:56.234Z,10.30
2018-09-30T21:40:00.963Z,10.30
2018-09-30T21:42:06.657Z,10.30
2018-09-30T21:44:11.401Z,10.30
2018-09-30T21:46:16.118Z,10.30
2018-09-30T21:48:21.475Z,10.30
2018-09-30T21:50:26.626Z,10.30
2018-09-30T21:52:31.586Z,10.30
2018-09-30T21:54:36.250Z,10.30
2018-09-30T21:56:41.031Z,10.30
2018-09-30T21:58:47.007Z,10.20
2018-09-30T22:00:56.797Z,10.20
2018-09-30T22:03:01.910Z,10.20
2018-09-30T22:05:07.024Z,10.20
2018-09-30T22:07:11.833Z,10.20
2018-09-30T22:09:16.597Z,10.20
2018-09-30T22:11:21.370Z,10.20
2018-09-30T22:13:26.838Z,10.20
2018-09-30T22:15:31.860Z,10.20
2018-09-30T22:17:36.903Z,10.20
2018-09-30T22:19:41.762Z,10.20
2018-09-30T22:21:49.511Z,10.20
2018-09-30T22:23:54.221Z,10.20
2018-09-30T22:25:59.144Z,10.20
2018-09-30T22:28:07.962Z,10.20
2018-09-30T22:30:12.895Z,10.20
2018-09-30T22:32:17.598Z,10.20
2018-09-30T22:34:22.389Z,10.20
2018-09-30T22:36:27.140Z,10.20
2018-09-30T22:38:31.837Z,10.20
2018-09-30T22:40:38.768Z,10.20
2018-09-30T22:42:44.136Z,10.20
2018-09-30T22:44:49.312Z,10.20
2018-09-30T22:46:54.188Z,10.20
2018-09-30T22:48:58.927Z,10.20
2018-09-30T22:51:03.561Z,10.20
2018-09-30T22:53:08.452Z,10.20
2018-09-30T22:55:13.381Z,10.20
2018-09-30T22:57:18.069Z,10.20
2018-09-30T22:59:22.803Z,10.20
2018-09-30T23:01:27.559Z,10.20
2018-09-30T23:03:32.291Z,10.30
2018-09-30T23:05:38.799Z,10.20
2018-09-30T23:07:43.536Z,10.20
2018-09-30T23:09:48.340Z,10.20
2018-09-30T23:11:53.158Z,10.20
2018-09-30T23:13:57.839Z,10.20
2018-09-30T23:16:02.590Z,10.20
2018-09-30T23:18:07.340Z,10.20
2018-09-30T23:20:17.926Z,10.20
2018-09-30T23:22:22.666Z,10.30
2018-09-30T23:24:27.384Z,10.30
2018-09-30T23:26:32.109Z,10.20
2018-09-30T23:28:36.845Z,10.20
2018-09-30T23:30:41.533Z,10.20
2018-09-30T23:32:47.528Z,10.20
2018-09-30T23:34:54.211Z,10.20
2018-09-30T23:37:01.963Z,10.20
2018-09-30T23:39:10.471Z,10.10
2018-09-30T23:41:15.099Z,10.10
2018-09-30T23:43:19.826Z,10.10
2018-09-30T23:45:24.547Z,10.10
2018-09-30T23:47:29.206Z,10.10
2018-09-30T23:49:33.873Z,10.10
2018-09-30T23:51:38.519Z,10.10
2018-09-30T23:53:43.300Z,10.10
2018-09-30T23:55:48.206Z,10.10
2018-09-30T23:57:52.949Z,10.10
2018-09-30T23:59:57.650Z,10.00
